sensor_id;sensor_type;location;lat;lon;timestamp;temperature;humidity
16893;DHT22;8563;52.242;9.098;2024-02-14T00:01:41;7.00;99.90
16893;DHT22;8563;52.242;9.098;2024-02-14T00:04:14;7.10;99.90
16893;DHT22;8563;52.242;9.098;2024-02-14T00:06:46;7.10;99.90
16893;DHT22;8563;52.242;9.098;2024-02-14T00:09:18;7.10;99.90
16893;DHT22;8563;52.242;9.098;2024-02-14T00:11:52;7.00;99.90
16893;DHT22;8563;52.242;9.098;2024-02-14T00:14:24;7.00;99.90
16893;DHT22;8563;52.242;9.098;2024-02-14T00:16:56;7.00;99.90
16893;DHT22;8563;52.242;9.098;2024-02-14T00:19:30;6.90;99.90
16893;DHT22;8563;52.242;9.098;2024-02-14T00:22:03;6.90;99.90
16893;DHT22;8563;52.242;9.098;2024-02-14T00:24:35;7.00;99.90
16893;DHT22;8563;52.242;9.098;2024-02-14T00:27:09;7.00;99.90
16893;DHT22;8563;52.242;9.098;2024-02-14T00:29:41;7.00;99.90
16893;DHT22;8563;52.242;9.098;2024-02-14T00:32:15;7.10;99.90
16893;DHT22;8563;52.242;9.098;2024-02-14T00:34:48;7.20;99.90
16893;DHT22;8563;52.242;9.098;2024-02-14T00:37:20;7.20;99.90
16893;DHT22;8563;52.242;9.098;2024-02-14T00:39:53;7.20;99.90
16893;DHT22;8563;52.242;9.098;2024-02-14T00:42:28;7.30;99.90
16893;DHT22;8563;52.242;9.098;2024-02-14T00:45:00;7.30;99.90
16893;DHT22;8563;52.242;9.098;2024-02-14T00:47:34;7.30;99.90
16893;DHT22;8563;52.242;9.098;2024-02-14T00:50:07;7.40;99.90
16893;DHT22;8563;52.242;9.098;2024-02-14T00:52:39;7.40;99.90
16893;DHT22;8563;52.242;9.098;2024-02-14T00:55:12;7.40;99.90
16893;DHT22;8563;52.242;9.098;2024-02-14T00:57:46;7.40;99.90
16893;DHT22;8563;52.242;9.098;2024-02-14T01:00:18;7.40;99.90
16893;DHT22;8563;52.242;9.098;2024-02-14T01:02:51;7.40;99.90
16893;DHT22;8563;52.242;9.098;2024-02-14T01:05:23;7.40;99.90
16893;DHT22;8563;52.242;9.098;2024-02-14T01:07:56;7.40;99.90
16893;DHT22;8563;52.242;9.098;2024-02-14T01:10:28;7.50;99.90
16893;DHT22;8563;52.242;9.098;2024-02-14T01:13:02;7.50;99.90
16893;DHT22;8563;52.242;9.098;2024-02-14T01:15:34;7.40;99.90
16893;DHT22;8563;52.242;9.098;2024-02-14T01:18:06;7.40;99.90
16893;DHT22;8563;52.242;9.098;2024-02-14T01:20:39;7.50;99.90
16893;DHT22;8563;52.242;9.098;2024-02-14T01:23:11;7.50;99.90
16893;DHT22;8563;52.242;9.098;2024-02-14T01:25:43;7.40;99.90
16893;DHT22;8563;52.242;9.098;2024-02-14T01:28:17;7.50;99.90
16893;DHT22;8563;52.242;9.098;2024-02-14T01:30:49;7.40;99.90
16893;DHT22;8563;52.242;9.098;2024-02-14T01:33:22;7.40;99.90
16893;DHT22;8563;52.242;9.098;2024-02-14T01:35:54;7.40;99.90
16893;DHT22;8563;52.242;9.098;2024-02-14T01:38:27;7.40;99.90
16893;DHT22;8563;52.242;9.098;2024-02-14T01:40:59;7.40;99.90
16893;DHT22;8563;52.242;9.098;2024-02-14T01:43:33;7.30;99.90
16893;DHT22;8563;52.242;9.098;2024-02-14T01:46:06;7.30;99.90
16893;DHT22;8563;52.242;9.098;2024-02-14T01:48:39;7.30;99.90
16893;DHT22;8563;52.242;9.098;2024-02-14T01:51:13;7.30;99.90
16893;DHT22;8563;52.242;9.098;2024-02-14T01:53:48;7.30;99.90
16893;DHT22;8563;52.242;9.098;2024-02-14T01:56:20;7.30;99.90
16893;DHT22;8563;52.242;9.098;2024-02-14T01:58:54;7.30;99.90
16893;DHT22;8563;52.242;9.098;2024-02-14T02:01:26;7.20;99.90
16893;DHT22;8563;52.242;9.098;2024-02-14T02:03:59;7.20;99.90
16893;DHT22;8563;52.242;9.098;2024-02-14T02:06:32;7.30;99.90
16893;DHT22;8563;52.242;9.098;2024-02-14T02:09:04;7.30;99.90
16893;DHT22;8563;52.242;9.098;2024-02-14T02:11:46;7.30;99.90
16893;DHT22;8563;52.242;9.098;2024-02-14T02:14:21;7.30;99.90
16893;DHT22;8563;52.242;9.098;2024-02-14T02:16:53;7.30;99.90
16893;DHT22;8563;52.242;9.098;2024-02-14T02:19:26;7.30;99.90
16893;DHT22;8563;52.242;9.098;2024-02-14T02:21:58;7.30;99.90
16893;DHT22;8563;52.242;9.098;2024-02-14T02:24:32;7.30;99.90
16893;DHT22;8563;52.242;9.098;2024-02-14T02:27:04;7.30;99.90
16893;DHT22;8563;52.242;9.098;2024-02-14T02:29:37;7.30;99.90
16893;DHT22;8563;52.242;9.098;2024-02-14T02:32:09;7.30;99.90
16893;DHT22;8563;52.242;9.098;2024-02-14T02:34:42;7.30;99.90
16893;DHT22;8563;52.242;9.098;2024-02-14T02:37:16;7.30;99.90
16893;DHT22;8563;52.242;9.098;2024-02-14T02:39:50;7.30;99.90
16893;DHT22;8563;52.242;9.098;2024-02-14T02:42:22;7.20;99.90
16893;DHT22;8563;52.242;9.098;2024-02-14T02:44:54;7.20;99.90
16893;DHT22;8563;52.242;9.098;2024-02-14T02:47:27;7.10;99.90
16893;DHT22;8563;52.242;9.098;2024-02-14T02:49:59;7.10;99.90
16893;DHT22;8563;52.242;9.098;2024-02-14T02:52:32;7.10;99.90
16893;DHT22;8563;52.242;9.098;2024-02-14T02:55:06;7.10;99.90
16893;DHT22;8563;52.242;9.098;2024-02-14T02:57:41;7.10;99.90
16893;DHT22;8563;52.242;9.098;2024-02-14T03:00:15;7.10;99.90
16893;DHT22;8563;52.242;9.098;2024-02-14T03:02:47;7.10;99.90
16893;DHT22;8563;52.242;9.098;2024-02-14T03:05:20;7.10;99.90
16893;DHT22;8563;52.242;9.098;2024-02-14T03:07:54;7.10;99.90
16893;DHT22;8563;52.242;9.098;2024-02-14T03:10:30;7.10;99.90
16893;DHT22;8563;52.242;9.098;2024-02-14T03:13:03;7.10;99.90
16893;DHT22;8563;52.242;9.098;2024-02-14T03:15:35;7.10;99.90
16893;DHT22;8563;52.242;9.098;2024-02-14T03:18:07;7.10;99.90
16893;DHT22;8563;52.242;9.098;2024-02-14T03:20:40;7.10;99.90
16893;DHT22;8563;52.242;9.098;2024-02-14T03:23:12;7.10;99.90
16893;DHT22;8563;52.242;9.098;2024-02-14T03:25:47;7.10;99.90
16893;DHT22;8563;52.242;9.098;2024-02-14T03:28:19;7.10;99.90
16893;DHT22;8563;52.242;9.098;2024-02-14T03:30:52;7.10;99.90
16893;DHT22;8563;52.242;9.098;2024-02-14T03:33:24;7.20;99.90
16893;DHT22;8563;52.242;9.098;2024-02-14T03:35:56;7.20;99.90
16893;DHT22;8563;52.242;9.098;2024-02-14T03:38:29;7.20;99.90
16893;DHT22;8563;52.242;9.098;2024-02-14T03:41:03;7.20;99.90
16893;DHT22;8563;52.242;9.098;2024-02-14T03:43:36;7.20;99.90
16893;DHT22;8563;52.242;9.098;2024-02-14T03:46:08;7.30;99.90
16893;DHT22;8563;52.242;9.098;2024-02-14T03:48:43;7.20;99.90
16893;DHT22;8563;52.242;9.098;2024-02-14T03:51:15;7.20;99.90
16893;DHT22;8563;52.242;9.098;2024-02-14T03:53:48;7.10;99.90
16893;DHT22;8563;52.242;9.098;2024-02-14T03:56:22;7.10;99.90
16893;DHT22;8563;52.242;9.098;2024-02-14T03:58:54;7.10;99.90
16893;DHT22;8563;52.242;9.098;2024-02-14T04:01:26;7.00;99.90
16893;DHT22;8563;52.242;9.098;2024-02-14T04:03:59;7.00;99.90
16893;DHT22;8563;52.242;9.098;2024-02-14T04:06:31;7.00;99.90
16893;DHT22;8563;52.242;9.098;2024-02-14T04:09:03;6.90;99.90
16893;DHT22;8563;52.242;9.098;2024-02-14T04:11:37;6.90;99.90
16893;DHT22;8563;52.242;9.098;2024-02-14T04:14:10;6.90;99.90
16893;DHT22;8563;52.242;9.098;2024-02-14T04:16:42;6.90;99.90
16893;DHT22;8563;52.242;9.098;2024-02-14T04:19:15;6.90;99.90
16893;DHT22;8563;52.242;9.098;2024-02-14T04:21:48;7.00;99.90
16893;DHT22;8563;52.242;9.098;2024-02-14T04:24:21;7.00;99.90
16893;DHT22;8563;52.242;9.098;2024-02-14T04:26:54;7.00;99.90
16893;DHT22;8563;52.242;9.098;2024-02-14T04:29:28;7.00;99.90
16893;DHT22;8563;52.242;9.098;2024-02-14T04:32:01;7.00;99.90
16893;DHT22;8563;52.242;9.098;2024-02-14T04:34:33;7.00;99.90
16893;DHT22;8563;52.242;9.098;2024-02-14T04:37:09;7.00;99.90
16893;DHT22;8563;52.242;9.098;2024-02-14T04:39:44;7.10;99.90
16893;DHT22;8563;52.242;9.098;2024-02-14T04:42:18;7.10;99.90
16893;DHT22;8563;52.242;9.098;2024-02-14T04:44:50;7.10;99.90
16893;DHT22;8563;52.242;9.098;2024-02-14T04:47:22;7.20;99.90
16893;DHT22;8563;52.242;9.098;2024-02-14T04:49:55;7.20;99.90
16893;DHT22;8563;52.242;9.098;2024-02-14T04:52:27;7.20;99.90
16893;DHT22;8563;52.242;9.098;2024-02-14T04:54:59;7.30;99.90
16893;DHT22;8563;52.242;9.098;2024-02-14T04:57:33;7.30;99.90
16893;DHT22;8563;52.242;9.098;2024-02-14T05:00:09;7.30;99.90
16893;DHT22;8563;52.242;9.098;2024-02-14T05:02:41;7.40;99.90
16893;DHT22;8563;52.242;9.098;2024-02-14T05:05:13;7.40;99.90
16893;DHT22;8563;52.242;9.098;2024-02-14T05:07:46;7.50;99.90
16893;DHT22;8563;52.242;9.098;2024-02-14T05:10:18;7.50;99.90
16893;DHT22;8563;52.242;9.098;2024-02-14T05:12:52;7.50;99.90
16893;DHT22;8563;52.242;9.098;2024-02-14T05:15:24;7.60;99.90
16893;DHT22;8563;52.242;9.098;2024-02-14T05:17:56;7.60;99.90
16893;DHT22;8563;52.242;9.098;2024-02-14T05:20:28;7.60;99.90
16893;DHT22;8563;52.242;9.098;2024-02-14T05:23:01;7.60;99.90
16893;DHT22;8563;52.242;9.098;2024-02-14T05:25:34;7.50;99.90
16893;DHT22;8563;52.242;9.098;2024-02-14T05:28:07;7.50;99.90
16893;DHT22;8563;52.242;9.098;2024-02-14T05:30:44;7.50;99.90
16893;DHT22;8563;52.242;9.098;2024-02-14T05:33:16;7.50;99.90
16893;DHT22;8563;52.242;9.098;2024-02-14T05:35:53;7.60;99.90
16893;DHT22;8563;52.242;9.098;2024-02-14T05:38:25;7.60;99.90
16893;DHT22;8563;52.242;9.098;2024-02-14T05:40:57;7.50;99.90
16893;DHT22;8563;52.242;9.098;2024-02-14T05:43:31;7.60;99.90
16893;DHT22;8563;52.242;9.098;2024-02-14T05:46:03;7.70;99.90
16893;DHT22;8563;52.242;9.098;2024-02-14T05:48:36;7.70;99.90
16893;DHT22;8563;52.242;9.098;2024-02-14T05:51:08;7.70;99.90
16893;DHT22;8563;52.242;9.098;2024-02-14T05:53:41;7.70;99.90
16893;DHT22;8563;52.242;9.098;2024-02-14T05:56:13;7.70;99.90
16893;DHT22;8563;52.242;9.098;2024-02-14T05:58:46;7.80;99.90
16893;DHT22;8563;52.242;9.098;2024-02-14T06:01:19;7.80;99.90
16893;DHT22;8563;52.242;9.098;2024-02-14T06:03:51;7.90;99.90
16893;DHT22;8563;52.242;9.098;2024-02-14T06:06:23;7.90;99.90
16893;DHT22;8563;52.242;9.098;2024-02-14T06:08:56;7.90;99.90
16893;DHT22;8563;52.242;9.098;2024-02-14T06:11:28;8.00;99.90
16893;DHT22;8563;52.242;9.098;2024-02-14T06:14:02;8.00;99.90
16893;DHT22;8563;52.242;9.098;2024-02-14T06:16:34;8.10;99.90
16893;DHT22;8563;52.242;9.098;2024-02-14T06:19:07;8.10;99.90
16893;DHT22;8563;52.242;9.098;2024-02-14T06:21:41;8.10;99.90
16893;DHT22;8563;52.242;9.098;2024-02-14T06:24:13;8.20;99.90
16893;DHT22;8563;52.242;9.098;2024-02-14T06:26:46;8.10;99.90
16893;DHT22;8563;52.242;9.098;2024-02-14T06:29:19;8.10;99.90
16893;DHT22;8563;52.242;9.098;2024-02-14T06:31:52;8.10;99.90
16893;DHT22;8563;52.242;9.098;2024-02-14T06:34:24;8.10;99.90
16893;DHT22;8563;52.242;9.098;2024-02-14T06:36:59;8.10;99.90
16893;DHT22;8563;52.242;9.098;2024-02-14T06:39:31;8.20;99.90
16893;DHT22;8563;52.242;9.098;2024-02-14T06:42:04;8.20;99.90
16893;DHT22;8563;52.242;9.098;2024-02-14T06:44:38;8.30;99.90
16893;DHT22;8563;52.242;9.098;2024-02-14T06:47:12;8.30;99.90
16893;DHT22;8563;52.242;9.098;2024-02-14T06:49:44;8.30;99.90
16893;DHT22;8563;52.242;9.098;2024-02-14T06:52:16;8.30;99.90
16893;DHT22;8563;52.242;9.098;2024-02-14T06:54:49;8.30;99.90
16893;DHT22;8563;52.242;9.098;2024-02-14T06:57:21;8.40;99.90
16893;DHT22;8563;52.242;9.098;2024-02-14T06:59:55;8.40;99.90
16893;DHT22;8563;52.242;9.098;2024-02-14T07:02:27;8.50;99.90
16893;DHT22;8563;52.242;9.098;2024-02-14T07:04:59;8.50;99.90
16893;DHT22;8563;52.242;9.098;2024-02-14T07:07:33;8.50;99.90
16893;DHT22;8563;52.242;9.098;2024-02-14T07:10:06;8.50;99.90
16893;DHT22;8563;52.242;9.098;2024-02-14T07:12:38;8.50;99.90
16893;DHT22;8563;52.242;9.098;2024-02-14T07:15:12;8.50;99.90
16893;DHT22;8563;52.242;9.098;2024-02-14T07:17:44;8.50;99.90
16893;DHT22;8563;52.242;9.098;2024-02-14T07:20:17;8.50;99.90
16893;DHT22;8563;52.242;9.098;2024-02-14T07:22:50;8.50;99.90
16893;DHT22;8563;52.242;9.098;2024-02-14T07:25:24;8.60;99.90
16893;DHT22;8563;52.242;9.098;2024-02-14T07:27:56;8.60;99.90
16893;DHT22;8563;52.242;9.098;2024-02-14T07:30:30;8.60;99.90
16893;DHT22;8563;52.242;9.098;2024-02-14T07:33:02;8.60;99.90
16893;DHT22;8563;52.242;9.098;2024-02-14T07:35:35;8.60;99.90
16893;DHT22;8563;52.242;9.098;2024-02-14T07:38:07;8.60;99.90
16893;DHT22;8563;52.242;9.098;2024-02-14T07:40:40;8.60;99.90
16893;DHT22;8563;52.242;9.098;2024-02-14T07:43:12;8.60;99.90
16893;DHT22;8563;52.242;9.098;2024-02-14T07:45:46;8.70;99.90
16893;DHT22;8563;52.242;9.098;2024-02-14T07:48:19;8.70;99.90
16893;DHT22;8563;52.242;9.098;2024-02-14T07:50:53;8.70;99.90
16893;DHT22;8563;52.242;9.098;2024-02-14T07:53:26;8.70;99.90
16893;DHT22;8563;52.242;9.098;2024-02-14T07:55:59;8.70;99.90
16893;DHT22;8563;52.242;9.098;2024-02-14T07:58:31;8.70;99.90
16893;DHT22;8563;52.242;9.098;2024-02-14T08:01:05;8.70;99.90
16893;DHT22;8563;52.242;9.098;2024-02-14T08:03:37;8.80;99.90
16893;DHT22;8563;52.242;9.098;2024-02-14T08:06:09;8.70;99.90
16893;DHT22;8563;52.242;9.098;2024-02-14T08:08:41;8.80;99.90
16893;DHT22;8563;52.242;9.098;2024-02-14T08:11:14;8.80;99.90
16893;DHT22;8563;52.242;9.098;2024-02-14T08:13:47;8.80;99.90
16893;DHT22;8563;52.242;9.098;2024-02-14T08:16:20;8.90;99.90
16893;DHT22;8563;52.242;9.098;2024-02-14T08:18:53;8.90;99.90
16893;DHT22;8563;52.242;9.098;2024-02-14T08:21:29;9.00;99.90
16893;DHT22;8563;52.242;9.098;2024-02-14T08:24:02;9.10;99.90
16893;DHT22;8563;52.242;9.098;2024-02-14T08:26:34;9.10;99.90
16893;DHT22;8563;52.242;9.098;2024-02-14T08:29:06;9.20;99.90
16893;DHT22;8563;52.242;9.098;2024-02-14T08:31:42;9.20;99.90
16893;DHT22;8563;52.242;9.098;2024-02-14T08:34:14;9.30;99.90
16893;DHT22;8563;52.242;9.098;2024-02-14T08:36:46;9.30;99.90
16893;DHT22;8563;52.242;9.098;2024-02-14T08:39:19;9.30;99.90
16893;DHT22;8563;52.242;9.098;2024-02-14T08:41:52;9.30;99.90
16893;DHT22;8563;52.242;9.098;2024-02-14T08:44:24;9.30;99.90
16893;DHT22;8563;52.242;9.098;2024-02-14T08:46:57;9.30;99.90
16893;DHT22;8563;52.242;9.098;2024-02-14T08:49:30;9.30;99.90
16893;DHT22;8563;52.242;9.098;2024-02-14T08:52:02;9.30;99.90
16893;DHT22;8563;52.242;9.098;2024-02-14T08:54:35;9.40;99.90
16893;DHT22;8563;52.242;9.098;2024-02-14T08:57:07;9.50;99.90
16893;DHT22;8563;52.242;9.098;2024-02-14T08:59:40;9.50;99.90
16893;DHT22;8563;52.242;9.098;2024-02-14T09:02:16;9.50;99.90
16893;DHT22;8563;52.242;9.098;2024-02-14T09:04:48;9.50;99.90
16893;DHT22;8563;52.242;9.098;2024-02-14T09:07:21;9.60;99.90
16893;DHT22;8563;52.242;9.098;2024-02-14T09:09:54;9.70;99.90
16893;DHT22;8563;52.242;9.098;2024-02-14T09:12:26;9.70;99.90
16893;DHT22;8563;52.242;9.098;2024-02-14T09:14:58;9.70;99.90
16893;DHT22;8563;52.242;9.098;2024-02-14T09:17:32;9.80;99.90
16893;DHT22;8563;52.242;9.098;2024-02-14T09:20:05;9.80;99.90
16893;DHT22;8563;52.242;9.098;2024-02-14T09:22:40;9.80;99.90
16893;DHT22;8563;52.242;9.098;2024-02-14T09:25:13;9.80;99.90
16893;DHT22;8563;52.242;9.098;2024-02-14T09:27:45;9.90;99.90
16893;DHT22;8563;52.242;9.098;2024-02-14T09:30:19;9.90;99.90
16893;DHT22;8563;52.242;9.098;2024-02-14T09:32:53;9.90;99.90
16893;DHT22;8563;52.242;9.098;2024-02-14T09:35:25;10.00;99.90
16893;DHT22;8563;52.242;9.098;2024-02-14T09:37:57;10.00;99.90
16893;DHT22;8563;52.242;9.098;2024-02-14T09:40:30;10.00;99.90
16893;DHT22;8563;52.242;9.098;2024-02-14T09:43:05;10.00;99.90
16893;DHT22;8563;52.242;9.098;2024-02-14T09:45:41;10.00;99.90
16893;DHT22;8563;52.242;9.098;2024-02-14T09:48:16;10.00;99.90
16893;DHT22;8563;52.242;9.098;2024-02-14T09:50:49;10.10;99.90
16893;DHT22;8563;52.242;9.098;2024-02-14T09:53:21;10.00;99.90
16893;DHT22;8563;52.242;9.098;2024-02-14T09:55:54;10.00;99.90
16893;DHT22;8563;52.242;9.098;2024-02-14T09:58:27;10.00;99.90
16893;DHT22;8563;52.242;9.098;2024-02-14T10:01:00;10.00;99.90
16893;DHT22;8563;52.242;9.098;2024-02-14T10:03:33;10.00;99.90
16893;DHT22;8563;52.242;9.098;2024-02-14T10:06:06;10.00;99.90
16893;DHT22;8563;52.242;9.098;2024-02-14T10:08:40;10.00;99.90
16893;DHT22;8563;52.242;9.098;2024-02-14T10:11:13;10.10;99.90
16893;DHT22;8563;52.242;9.098;2024-02-14T10:13:48;10.10;99.90
16893;DHT22;8563;52.242;9.098;2024-02-14T10:16:21;10.10;99.90
16893;DHT22;8563;52.242;9.098;2024-02-14T10:18:54;10.10;99.90
16893;DHT22;8563;52.242;9.098;2024-02-14T10:21:28;10.20;99.90
16893;DHT22;8563;52.242;9.098;2024-02-14T10:24:00;10.30;99.90
16893;DHT22;8563;52.242;9.098;2024-02-14T10:26:33;10.20;99.90
16893;DHT22;8563;52.242;9.098;2024-02-14T10:29:06;10.20;99.90
16893;DHT22;8563;52.242;9.098;2024-02-14T10:31:41;10.20;99.90
16893;DHT22;8563;52.242;9.098;2024-02-14T10:34:15;10.30;99.90
16893;DHT22;8563;52.242;9.098;2024-02-14T10:36:49;10.30;99.90
16893;DHT22;8563;52.242;9.098;2024-02-14T10:39:25;10.30;99.90
16893;DHT22;8563;52.242;9.098;2024-02-14T10:41:58;10.40;99.90
16893;DHT22;8563;52.242;9.098;2024-02-14T10:44:30;10.40;99.90
16893;DHT22;8563;52.242;9.098;2024-02-14T10:47:06;10.40;99.90
16893;DHT22;8563;52.242;9.098;2024-02-14T10:49:46;10.40;99.90
16893;DHT22;8563;52.242;9.098;2024-02-14T10:52:19;10.40;99.90
16893;DHT22;8563;52.242;9.098;2024-02-14T10:54:56;10.40;99.90
16893;DHT22;8563;52.242;9.098;2024-02-14T10:57:29;10.50;99.90
16893;DHT22;8563;52.242;9.098;2024-02-14T11:00:04;10.60;99.90
16893;DHT22;8563;52.242;9.098;2024-02-14T11:02:38;10.60;99.90
16893;DHT22;8563;52.242;9.098;2024-02-14T11:05:15;10.60;99.90
16893;DHT22;8563;52.242;9.098;2024-02-14T11:07:48;10.70;99.90
16893;DHT22;8563;52.242;9.098;2024-02-14T11:10:23;10.80;99.90
16893;DHT22;8563;52.242;9.098;2024-02-14T11:12:57;10.80;99.90
16893;DHT22;8563;52.242;9.098;2024-02-14T11:15:35;10.80;99.90
16893;DHT22;8563;52.242;9.098;2024-02-14T11:18:08;10.80;99.90
16893;DHT22;8563;52.242;9.098;2024-02-14T11:20:42;10.70;99.90
16893;DHT22;8563;52.242;9.098;2024-02-14T11:23:21;10.70;99.90
16893;DHT22;8563;52.242;9.098;2024-02-14T11:26:00;10.60;99.90
16893;DHT22;8563;52.242;9.098;2024-02-14T11:28:37;10.60;99.90
16893;DHT22;8563;52.242;9.098;2024-02-14T11:31:11;10.70;99.90
16893;DHT22;8563;52.242;9.098;2024-02-14T11:33:43;10.70;99.90
16893;DHT22;8563;52.242;9.098;2024-02-14T11:36:18;10.80;99.90
16893;DHT22;8563;52.242;9.098;2024-02-14T11:38:50;10.80;99.90
16893;DHT22;8563;52.242;9.098;2024-02-14T11:41:27;10.80;99.90
16893;DHT22;8563;52.242;9.098;2024-02-14T11:44:01;10.80;99.90
16893;DHT22;8563;52.242;9.098;2024-02-14T11:46:35;10.90;99.90
16893;DHT22;8563;52.242;9.098;2024-02-14T11:49:08;10.90;99.90
16893;DHT22;8563;52.242;9.098;2024-02-14T11:51:42;10.90;99.90
16893;DHT22;8563;52.242;9.098;2024-02-14T11:54:14;10.90;99.90
16893;DHT22;8563;52.242;9.098;2024-02-14T11:56:48;11.00;99.90
16893;DHT22;8563;52.242;9.098;2024-02-14T11:59:20;11.00;99.90
16893;DHT22;8563;52.242;9.098;2024-02-14T12:01:54;11.00;99.90
16893;DHT22;8563;52.242;9.098;2024-02-14T12:04:29;11.00;99.90
16893;DHT22;8563;52.242;9.098;2024-02-14T12:07:03;11.00;99.90
16893;DHT22;8563;52.242;9.098;2024-02-14T12:09:35;11.00;99.90
16893;DHT22;8563;52.242;9.098;2024-02-14T12:12:08;11.10;99.90
16893;DHT22;8563;52.242;9.098;2024-02-14T12:14:40;11.10;99.90
16893;DHT22;8563;52.242;9.098;2024-02-14T12:17:16;11.10;99.90
16893;DHT22;8563;52.242;9.098;2024-02-14T12:19:49;11.10;99.90
16893;DHT22;8563;52.242;9.098;2024-02-14T12:22:24;11.00;99.90
16893;DHT22;8563;52.242;9.098;2024-02-14T12:24:56;10.90;99.90
16893;DHT22;8563;52.242;9.098;2024-02-14T12:27:32;10.90;99.90
16893;DHT22;8563;52.242;9.098;2024-02-14T12:30:07;10.90;99.90
16893;DHT22;8563;52.242;9.098;2024-02-14T12:32:40;11.00;99.90
16893;DHT22;8563;52.242;9.098;2024-02-14T12:35:13;10.90;99.90
16893;DHT22;8563;52.242;9.098;2024-02-14T12:37:47;10.90;99.90
16893;DHT22;8563;52.242;9.098;2024-02-14T12:40:19;11.00;99.90
16893;DHT22;8563;52.242;9.098;2024-02-14T12:42:51;11.00;99.90
16893;DHT22;8563;52.242;9.098;2024-02-14T12:45:24;11.00;99.90
16893;DHT22;8563;52.242;9.098;2024-02-14T12:47:56;11.00;99.90
16893;DHT22;8563;52.242;9.098;2024-02-14T12:50:29;11.10;99.90
16893;DHT22;8563;52.242;9.098;2024-02-14T12:53:04;11.10;99.90
16893;DHT22;8563;52.242;9.098;2024-02-14T12:55:36;11.10;99.90
16893;DHT22;8563;52.242;9.098;2024-02-14T12:58:08;11.10;99.90
16893;DHT22;8563;52.242;9.098;2024-02-14T13:00:41;11.20;99.90
16893;DHT22;8563;52.242;9.098;2024-02-14T13:03:15;11.20;99.90
16893;DHT22;8563;52.242;9.098;2024-02-14T13:05:47;11.10;99.90
16893;DHT22;8563;52.242;9.098;2024-02-14T13:08:21;11.10;99.90
16893;DHT22;8563;52.242;9.098;2024-02-14T13:10:54;11.20;99.90
16893;DHT22;8563;52.242;9.098;2024-02-14T13:13:27;11.20;99.90
16893;DHT22;8563;52.242;9.098;2024-02-14T13:16:00;11.20;99.90
16893;DHT22;8563;52.242;9.098;2024-02-14T13:18:33;11.20;99.90
16893;DHT22;8563;52.242;9.098;2024-02-14T13:21:05;11.20;99.90
16893;DHT22;8563;52.242;9.098;2024-02-14T13:23:39;11.30;99.90
16893;DHT22;8563;52.242;9.098;2024-02-14T13:26:11;11.20;99.90
16893;DHT22;8563;52.242;9.098;2024-02-14T13:28:44;11.30;99.90
16893;DHT22;8563;52.242;9.098;2024-02-14T13:31:17;11.30;99.90
16893;DHT22;8563;52.242;9.098;2024-02-14T13:33:49;11.20;99.90
16893;DHT22;8563;52.242;9.098;2024-02-14T13:36:21;11.30;99.90
16893;DHT22;8563;52.242;9.098;2024-02-14T13:38:55;11.20;99.90
16893;DHT22;8563;52.242;9.098;2024-02-14T13:41:28;11.30;99.90
16893;DHT22;8563;52.242;9.098;2024-02-14T13:44:00;11.30;99.90
16893;DHT22;8563;52.242;9.098;2024-02-14T13:46:33;11.20;99.90
16893;DHT22;8563;52.242;9.098;2024-02-14T13:49:05;11.20;99.90
16893;DHT22;8563;52.242;9.098;2024-02-14T13:51:38;11.20;99.90
16893;DHT22;8563;52.242;9.098;2024-02-14T13:54:11;11.30;99.90
16893;DHT22;8563;52.242;9.098;2024-02-14T13:56:44;11.20;99.90
16893;DHT22;8563;52.242;9.098;2024-02-14T13:59:17;11.20;99.90
16893;DHT22;8563;52.242;9.098;2024-02-14T14:01:49;11.20;99.90
16893;DHT22;8563;52.242;9.098;2024-02-14T14:04:22;11.30;99.90
16893;DHT22;8563;52.242;9.098;2024-02-14T14:06:54;11.20;99.90
16893;DHT22;8563;52.242;9.098;2024-02-14T14:09:29;11.30;99.90
16893;DHT22;8563;52.242;9.098;2024-02-14T14:12:03;11.30;99.90
16893;DHT22;8563;52.242;9.098;2024-02-14T14:14:35;11.30;99.90
16893;DHT22;8563;52.242;9.098;2024-02-14T14:17:08;11.30;99.90
16893;DHT22;8563;52.242;9.098;2024-02-14T14:19:40;11.30;99.90
16893;DHT22;8563;52.242;9.098;2024-02-14T14:22:13;11.20;99.90
16893;DHT22;8563;52.242;9.098;2024-02-14T14:24:48;11.30;99.90
16893;DHT22;8563;52.242;9.098;2024-02-14T14:27:20;11.20;99.90
16893;DHT22;8563;52.242;9.098;2024-02-14T14:29:53;11.20;99.90
16893;DHT22;8563;52.242;9.098;2024-02-14T14:32:25;11.20;99.90
16893;DHT22;8563;52.242;9.098;2024-02-14T14:34:57;11.20;99.90
16893;DHT22;8563;52.242;9.098;2024-02-14T14:37:30;11.20;99.90
16893;DHT22;8563;52.242;9.098;2024-02-14T14:40:05;11.20;99.90
16893;DHT22;8563;52.242;9.098;2024-02-14T14:42:39;11.20;99.90
16893;DHT22;8563;52.242;9.098;2024-02-14T14:45:11;11.30;99.90
16893;DHT22;8563;52.242;9.098;2024-02-14T14:47:43;11.30;99.90
16893;DHT22;8563;52.242;9.098;2024-02-14T14:50:16;11.30;99.90
16893;DHT22;8563;52.242;9.098;2024-02-14T14:52:49;11.30;99.90
16893;DHT22;8563;52.242;9.098;2024-02-14T14:55:24;11.40;99.90
16893;DHT22;8563;52.242;9.098;2024-02-14T14:57:56;11.40;99.90
16893;DHT22;8563;52.242;9.098;2024-02-14T15:00:29;11.40;99.90
16893;DHT22;8563;52.242;9.098;2024-02-14T15:03:02;11.40;99.90
16893;DHT22;8563;52.242;9.098;2024-02-14T15:05:34;11.40;99.90
16893;DHT22;8563;52.242;9.098;2024-02-14T15:08:08;11.40;99.90
16893;DHT22;8563;52.242;9.098;2024-02-14T15:10:42;11.40;99.90
16893;DHT22;8563;52.242;9.098;2024-02-14T15:13:14;11.40;99.90
16893;DHT22;8563;52.242;9.098;2024-02-14T15:15:47;11.30;99.90
16893;DHT22;8563;52.242;9.098;2024-02-14T15:18:19;11.40;99.90
16893;DHT22;8563;52.242;9.098;2024-02-14T15:20:51;11.40;99.90
16893;DHT22;8563;52.242;9.098;2024-02-14T15:23:24;11.40;99.90
16893;DHT22;8563;52.242;9.098;2024-02-14T15:25:57;11.40;99.90
16893;DHT22;8563;52.242;9.098;2024-02-14T15:28:33;11.40;99.90
16893;DHT22;8563;52.242;9.098;2024-02-14T15:31:11;11.40;99.90
16893;DHT22;8563;52.242;9.098;2024-02-14T15:34:01;11.40;99.90
16893;DHT22;8563;52.242;9.098;2024-02-14T15:36:35;11.30;99.90
16893;DHT22;8563;52.242;9.098;2024-02-14T15:39:07;11.40;99.90
16893;DHT22;8563;52.242;9.098;2024-02-14T15:41:41;11.30;99.90
16893;DHT22;8563;52.242;9.098;2024-02-14T15:44:13;11.30;99.90
16893;DHT22;8563;52.242;9.098;2024-02-14T15:46:45;11.20;99.90
16893;DHT22;8563;52.242;9.098;2024-02-14T15:49:17;11.30;99.90
16893;DHT22;8563;52.242;9.098;2024-02-14T15:51:49;11.30;99.90
16893;DHT22;8563;52.242;9.098;2024-02-14T15:54:22;11.30;99.90
16893;DHT22;8563;52.242;9.098;2024-02-14T15:56:56;11.20;99.90
16893;DHT22;8563;52.242;9.098;2024-02-14T15:59:28;11.20;99.90
16893;DHT22;8563;52.242;9.098;2024-02-14T16:02:01;11.30;99.90
16893;DHT22;8563;52.242;9.098;2024-02-14T16:04:34;11.30;99.90
16893;DHT22;8563;52.242;9.098;2024-02-14T16:07:06;11.30;99.90
16893;DHT22;8563;52.242;9.098;2024-02-14T16:09:38;11.30;99.90
16893;DHT22;8563;52.242;9.098;2024-02-14T16:12:12;11.30;99.90
16893;DHT22;8563;52.242;9.098;2024-02-14T16:14:45;11.20;99.90
16893;DHT22;8563;52.242;9.098;2024-02-14T16:17:18;11.30;99.90
16893;DHT22;8563;52.242;9.098;2024-02-14T16:19:50;11.30;99.90
16893;DHT22;8563;52.242;9.098;2024-02-14T16:22:22;11.30;99.90
16893;DHT22;8563;52.242;9.098;2024-02-14T16:24:55;11.30;99.90
16893;DHT22;8563;52.242;9.098;2024-02-14T16:27:29;11.30;99.90
16893;DHT22;8563;52.242;9.098;2024-02-14T16:30:01;11.30;99.90
16893;DHT22;8563;52.242;9.098;2024-02-14T16:32:34;11.30;99.90